Time;durP1;ratioP1;P1;durP2;ratioP2;P2;SDS_P1;SDS_P2;PMS_P1;PMS_P2;Temp;Humidity;BMP_temperature;BMP_pressure;BME280_temperature;BME280_humidity;BME280_pressure;Samples;Min_cycle;Max_cycle;Signal;HPM_P1;HPM_P2
2021/01/07 00:00:01;;;;;;;35.33;31.27;;;;;;;8.36;100.00;94095.81;5034267;28;20972;-70
2021/01/07 00:02:28;;;;;;;38.57;32.47;;;;;;;8.34;100.00;94085.72;5034040;28;20441;-69
2021/01/07 00:04:55;;;;;;;35.33;30.33;;;;;;;8.23;100.00;94084.31;5034594;28;20450;-70
2021/01/07 00:07:21;;;;;;;38.60;32.87;;;;;;;8.31;100.00;94093.75;5034570;28;20473;-70
2021/01/07 00:09:48;;;;;;;40.43;32.40;;;;;;;8.40;100.00;94076.56;5034677;28;20488;-69
2021/01/07 00:12:14;;;;;;;37.40;31.20;;;;;;;8.24;100.00;94072.31;5034286;28;20961;-69
2021/01/07 00:14:40;;;;;;;33.93;30.50;;;;;;;8.20;100.00;94076.94;5034370;28;20521;-71
2021/01/07 00:17:07;;;;;;;36.27;29.53;;;;;;;8.26;100.00;94072.94;5034762;28;20445;-70
2021/01/07 00:19:34;;;;;;;35.20;31.27;;;;;;;8.16;100.00;94080.00;5033876;28;20459;-70
2021/01/07 00:22:01;;;;;;;39.17;31.73;;;;;;;8.25;100.00;94079.03;5034418;28;20439;-70
2021/01/07 00:24:27;;;;;;;35.40;29.10;;;;;;;8.32;100.00;94071.47;5033979;28;20493;-70
2021/01/07 00:26:53;;;;;;;32.17;29.10;;;;;;;8.26;100.00;94085.78;5034110;28;20443;-70
2021/01/07 00:29:20;;;;;;;40.97;30.50;;;;;;;8.15;100.00;94076.66;5034056;28;20445;-70
2021/01/07 00:31:46;;;;;;;32.90;29.40;;;;;;;8.21;100.00;94080.31;5033858;28;20476;-70
2021/01/07 00:34:13;;;;;;;32.20;29.07;;;;;;;8.28;100.00;94060.75;5034005;28;20442;-70
2021/01/07 00:36:41;;;;;;;30.60;27.50;;;;;;;7.76;100.00;94062.81;5033660;28;20474;-70
2021/01/07 00:39:07;;;;;;;28.37;25.90;;;;;;;7.75;100.00;94064.56;5033835;28;20445;-70
2021/01/07 00:41:33;;;;;;;30.23;27.27;;;;;;;7.86;100.00;94057.50;5033522;28;20441;-70
2021/01/07 00:44:00;;;;;;;30.20;27.43;;;;;;;7.81;100.00;94055.44;5033711;28;20467;-70
2021/01/07 00:46:26;;;;;;;30.47;27.60;;;;;;;7.87;100.00;94064.22;5033615;28;20447;-70
2021/01/07 00:48:53;;;;;;;30.03;27.20;;;;;;;8.00;100.00;94049.13;5033628;28;20453;-70
2021/01/07 00:51:19;;;;;;;29.50;26.70;;;;;;;8.10;100.00;94037.88;5032318;28;20478;-70
2021/01/07 00:53:46;;;;;;;29.20;26.67;;;;;;;8.05;100.00;94055.53;5033726;28;20496;-70
2021/01/07 00:56:13;;;;;;;28.93;26.40;;;;;;;8.07;100.00;94039.00;5033447;28;20939;-70
2021/01/07 00:58:39;;;;;;;28.97;25.80;;;;;;;8.07;100.00;94038.19;5033632;28;20419;-70
2021/01/07 01:01:05;;;;;;;26.60;24.50;;;;;;;7.96;100.00;94039.34;5033411;28;20443;-70
2021/01/07 01:03:32;;;;;;;26.23;23.77;;;;;;;7.79;100.00;94040.22;5033112;28;20469;-70
2021/01/07 01:05:58;;;;;;;25.47;23.17;;;;;;;7.74;100.00;94046.78;5033177;28;20441;-70
2021/01/07 01:08:24;;;;;;;25.03;22.97;;;;;;;7.76;100.00;94055.13;5033134;28;20453;-70
2021/01/07 01:10:52;;;;;;;25.10;22.70;;;;;;;7.84;100.00;94049.97;5033005;28;20979;-70
2021/01/07 01:13:18;;;;;;;25.13;23.30;;;;;;;7.84;100.00;94049.19;5032450;28;20956;-69
2021/01/07 01:15:44;;;;;;;23.63;21.67;;;;;;;7.62;100.00;94036.06;5033167;28;20446;-69
2021/01/07 01:18:12;;;;;;;24.40;22.70;;;;;;;7.50;100.00;94027.94;5032854;28;20435;-69
2021/01/07 01:20:38;;;;;;;23.67;22.00;;;;;;;7.71;100.00;94040.22;5033005;28;20472;-69
2021/01/07 01:23:05;;;;;;;24.83;22.77;;;;;;;7.67;100.00;94039.75;5033068;28;20531;-69
2021/01/07 01:25:32;;;;;;;26.30;24.17;;;;;;;7.74;100.00;94036.53;5033475;28;20454;-69
2021/01/07 01:27:59;;;;;;;26.70;24.20;;;;;;;7.83;100.00;94033.00;5032663;28;20435;-69
2021/01/07 01:30:25;;;;;;;25.07;22.97;;;;;;;7.78;100.00;94030.13;5032570;28;20834;-69
2021/01/07 01:32:52;;;;;;;26.60;23.87;;;;;;;7.80;100.00;94020.50;5032963;28;20433;-69
2021/01/07 01:35:19;;;;;;;25.17;23.07;;;;;;;7.84;100.00;94028.69;5032713;28;20446;-69
2021/01/07 01:37:45;;;;;;;25.70;23.40;;;;;;;7.83;100.00;94022.75;5033319;28;20826;-69
2021/01/07 01:40:14;;;;;;;27.33;24.60;;;;;;;7.51;100.00;93997.03;5032709;28;20448;-69
2021/01/07 01:42:41;;;;;;;25.80;23.60;;;;;;;7.67;100.00;93996.19;5032309;28;20480;-69
2021/01/07 01:45:09;;;;;;;26.70;24.20;;;;;;;7.70;100.00;93989.13;5032274;28;20434;-68
2021/01/07 01:47:35;;;;;;;26.07;23.77;;;;;;;7.70;100.00;93978.88;5032210;28;20458;-69
2021/01/07 01:50:02;;;;;;;25.47;23.17;;;;;;;7.72;100.00;93976.94;5032607;28;20439;-69
2021/01/07 01:52:30;;;;;;;26.30;24.07;;;;;;;7.77;100.00;93965.22;5030983;28;20481;-68
2021/01/07 01:54:56;;;;;;;24.87;22.57;;;;;;;7.64;100.00;93968.31;5032161;28;20441;-69
2021/01/07 01:57:25;;;;;;;25.80;23.20;;;;;;;7.63;100.00;93963.38;5031992;28;20496;-69
2021/01/07 01:59:51;;;;;;;25.10;23.07;;;;;;;7.60;100.00;93951.69;5031323;28;20454;-69
2021/01/07 02:02:19;;;;;;;31.20;23.43;;;;;;;7.57;100.00;93954.59;5032059;28;20446;-69
2021/01/07 02:04:46;;;;;;;25.80;23.50;;;;;;;7.66;100.00;93961.25;5032174;28;20883;-69
2021/01/07 02:07:17;;;;;;;24.90;22.50;;;;;;;7.65;100.00;93934.06;5031960;28;20452;-69
2021/01/07 02:09:45;;;;;;;22.37;20.97;;;;;;;7.59;100.00;93939.84;5031961;28;20435;-70
2021/01/07 02:12:11;;;;;;;21.50;19.90;;;;;;;7.71;100.00;93911.25;5031894;28;20434;-69
2021/01/07 02:14:41;;;;;;;21.00;19.60;;;;;;;7.78;100.00;93907.06;5032117;28;20447;-69
2021/01/07 02:17:08;;;;;;;18.87;17.83;;;;;;;7.89;100.00;93893.09;5031903;28;20451;-70
2021/01/07 02:19:35;;;;;;;19.30;18.00;;;;;;;7.96;100.00;93880.38;5031882;28;20442;-69
2021/01/07 02:22:03;;;;;;;18.20;17.30;;;;;;;8.02;100.00;93857.44;5031860;28;20814;-68
2021/01/07 02:24:30;;;;;;;18.60;17.60;;;;;;;8.15;100.00;93855.28;5031749;28;20988;-69
2021/01/07 02:27:00;;;;;;;18.60;17.70;;;;;;;8.18;100.00;93849.78;5032089;28;20508;-68
2021/01/07 02:29:26;;;;;;;19.37;18.37;;;;;;;8.29;100.00;93859.66;5032078;28;20435;-68
2021/01/07 02:31:59;;;;;;;18.87;17.97;;;;;;;8.34;100.00;93861.72;5031726;28;20541;-69
2021/01/07 02:34:26;;;;;;;18.70;17.80;;;;;;;8.37;100.00;93869.06;5031780;28;20441;-71
2021/01/07 02:36:52;;;;;;;19.30;18.30;;;;;;;8.43;100.00;93882.97;5031932;28;20836;-69
2021/01/07 02:39:20;;;;;;;18.73;17.83;;;;;;;8.50;100.00;93878.75;5031667;28;20450;-69
2021/01/07 02:41:50;;;;;;;19.20;18.20;;;;;;;8.55;100.00;93891.88;5031949;28;20434;-69
2021/01/07 02:44:17;;;;;;;19.10;17.90;;;;;;;8.52;100.00;93893.97;5031889;28;20906;-69
2021/01/07 02:46:43;;;;;;;18.90;17.90;;;;;;;8.66;100.00;93879.63;5031602;28;20435;-69
2021/01/07 02:49:10;;;;;;;18.90;17.90;;;;;;;8.66;100.00;93889.91;5031526;28;20848;-69
2021/01/07 02:51:55;;;;;;;18.80;17.90;;;;;;;8.68;100.00;93893.09;5030795;28;20482;-69
2021/01/07 02:54:23;;;;;;;19.70;18.50;;;;;;;8.58;100.00;93886.41;5031348;28;20530;-69
2021/01/07 02:56:49;;;;;;;19.10;18.20;;;;;;;8.77;100.00;93911.78;5031380;28;20449;-69
2021/01/07 02:59:16;;;;;;;19.10;18.07;;;;;;;8.78;100.00;93928.78;5031517;28;20437;-69
2021/01/07 03:01:42;;;;;;;18.67;17.77;;;;;;;8.81;100.00;93939.50;5031488;28;20434;-69
2021/01/07 03:04:08;;;;;;;18.63;17.73;;;;;;;8.85;100.00;93952.00;5031810;28;20482;-69
2021/01/07 03:06:35;;;;;;;19.10;18.00;;;;;;;8.83;100.00;93972.72;5031580;28;20435;-69
2021/01/07 03:09:01;;;;;;;18.60;17.70;;;;;;;8.82;100.00;94001.94;5031448;28;20430;-70
2021/01/07 03:11:28;;;;;;;18.90;18.00;;;;;;;8.86;100.00;94010.09;5031484;28;20503;-70
2021/01/07 03:13:55;;;;;;;18.63;17.73;;;;;;;8.88;100.00;94003.00;5032046;28;20483;-70
2021/01/07 03:16:21;;;;;;;18.53;17.63;;;;;;;8.93;100.00;94023.84;5031452;28;20439;-70
2021/01/07 03:18:48;;;;;;;19.40;18.00;;;;;;;8.88;100.00;94024.34;5031414;28;20446;-70
2021/01/07 03:21:14;;;;;;;19.00;18.00;;;;;;;8.98;100.00;94020.75;5031307;28;20957;-70
2021/01/07 03:23:40;;;;;;;18.07;17.17;;;;;;;8.94;100.00;94015.16;5031283;28;20486;-70
2021/01/07 03:26:07;;;;;;;18.70;17.80;;;;;;;9.03;100.00;94047.53;5031311;28;20446;-70
2021/01/07 03:28:34;;;;;;;18.30;17.40;;;;;;;9.00;100.00;94029.91;5031197;28;20445;-70
2021/01/07 03:31:00;;;;;;;18.60;17.70;;;;;;;9.00;100.00;94022.19;5031037;28;20945;-70
2021/01/07 03:33:27;;;;;;;18.20;17.30;;;;;;;9.07;100.00;94042.84;5031542;28;20438;-70
2021/01/07 03:35:53;;;;;;;18.40;17.50;;;;;;;9.04;100.00;94045.75;5031409;28;20449;-70
2021/01/07 03:38:20;;;;;;;18.33;17.43;;;;;;;9.08;100.00;94044.44;5034625;28;20472;-70
2021/01/07 03:40:46;;;;;;;19.00;18.00;;;;;;;9.11;100.00;94040.72;5035081;28;20446;-70
2021/01/07 03:43:12;;;;;;;18.20;17.30;;;;;;;9.11;100.00;94043.31;5034823;28;20464;-69
2021/01/07 03:45:40;;;;;;;18.43;17.53;;;;;;;9.12;100.00;94057.72;5035658;28;20453;-70
2021/01/07 03:48:07;;;;;;;18.23;17.33;;;;;;;9.15;100.00;94049.69;5034568;28;20476;-70
2021/01/07 03:50:33;;;;;;;18.17;17.27;;;;;;;9.04;100.00;94020.06;5034958;28;20421;-69
2021/01/07 03:52:59;;;;;;;18.40;17.40;;;;;;;9.12;100.00;94042.31;5033322;28;20482;-70
2021/01/07 03:55:26;;;;;;;18.30;17.40;;;;;;;9.23;100.00;94049.63;5034529;28;20986;-70
2021/01/07 03:57:52;;;;;;;17.97;17.07;;;;;;;9.18;100.00;94057.06;5034728;28;20516;-70
2021/01/07 04:00:19;;;;;;;18.50;17.50;;;;;;;9.26;100.00;94056.19;5034334;28;20453;-70
2021/01/07 04:02:46;;;;;;;18.37;17.47;;;;;;;9.20;100.00;94057.69;5034813;28;20441;-70
2021/01/07 04:05:13;;;;;;;18.30;17.40;;;;;;;9.22;100.00;94060.88;5034576;28;20437;-70
2021/01/07 04:07:40;;;;;;;18.30;17.40;;;;;;;9.19;100.00;94061.22;5034603;28;20447;-69
2021/01/07 04:10:08;;;;;;;19.47;18.17;;;;;;;9.21;100.00;94074.69;5034514;28;20445;-69
2021/01/07 04:12:35;;;;;;;18.70;17.70;;;;;;;9.18;100.00;94084.53;5034199;28;20443;-69
2021/01/07 04:15:02;;;;;;;19.20;18.00;;;;;;;9.25;100.00;94090.56;5034384;28;20819;-69
2021/01/07 04:17:29;;;;;;;18.33;17.43;;;;;;;9.32;100.00;94088.13;5034396;28;20438;-69
2021/01/07 04:19:56;;;;;;;19.50;18.37;;;;;;;9.32;100.00;94094.03;5034056;28;20449;-69
2021/01/07 04:22:22;;;;;;;19.10;18.20;;;;;;;9.35;100.00;94108.31;5034076;28;20446;-69
2021/01/07 04:24:49;;;;;;;18.57;17.63;;;;;;;9.31;100.00;94133.56;5033949;28;20488;-69
2021/01/07 04:27:15;;;;;;;18.80;17.80;;;;;;;9.22;100.00;94127.69;5033722;28;20456;-69
2021/01/07 04:29:44;;;;;;;18.90;17.90;;;;;;;9.28;100.00;94149.31;5033817;28;20431;-69
2021/01/07 04:32:10;;;;;;;18.40;17.40;;;;;;;9.36;100.00;94138.19;5033528;28;20442;-69
2021/01/07 04:34:37;;;;;;;18.40;17.50;;;;;;;9.21;100.00;94120.94;5033783;28;20430;-72
2021/01/07 04:37:04;;;;;;;18.30;17.40;;;;;;;9.27;100.00;94147.72;5033900;28;20442;-70
2021/01/07 04:39:31;;;;;;;68.20;47.97;;;;;;;9.38;100.00;94142.19;5033830;28;20449;-86
2021/01/07 04:41:57;;;;;;;25.23;22.53;;;;;;;9.35;100.00;94149.44;5033259;28;20431;-70
2021/01/07 04:44:26;;;;;;;18.20;17.30;;;;;;;9.34;100.00;94145.28;5033796;28;20535;-75
2021/01/07 04:46:52;;;;;;;18.30;17.47;;;;;;;9.43;100.00;94139.09;5033155;28;20456;-76
2021/01/07 04:49:19;;;;;;;18.53;17.63;;;;;;;9.44;100.00;94139.91;5033309;28;20509;-73
2021/01/07 04:51:46;;;;;;;18.83;17.83;;;;;;;9.44;100.00;94158.69;5032032;28;20558;-73
2021/01/07 04:54:15;;;;;;;18.87;17.93;;;;;;;9.49;100.00;94147.91;5033518;28;20812;-73
2021/01/07 04:56:42;;;;;;;19.43;18.43;;;;;;;9.38;100.00;94133.69;5033185;28;20427;-73
2021/01/07 04:59:08;;;;;;;18.97;17.87;;;;;;;9.45;100.00;94142.31;5032897;28;20446;-73
2021/01/07 05:01:35;;;;;;;18.20;17.30;;;;;;;9.50;100.00;94157.19;5032996;28;20442;-72
2021/01/07 05:04:02;;;;;;;57.77;37.27;;;;;;;9.41;100.00;94158.25;5032929;28;20474;-83
2021/01/07 05:06:28;;;;;;;21.67;20.13;;;;;;;9.52;100.00;94169.91;5032762;28;20434;-73
2021/01/07 05:09:01;;;;;;;18.33;17.43;;;;;;;9.52;100.00;94157.03;5033297;28;20856;-72
2021/01/07 05:11:29;;;;;;;18.20;17.30;;;;;;;9.47;100.00;94163.50;5033106;28;20438;-73
2021/01/07 05:13:59;;;;;;;18.53;17.57;;;;;;;9.51;100.00;94153.66;5033069;28;20476;-70
2021/01/07 05:16:26;;;;;;;18.80;17.90;;;;;;;9.56;100.00;94153.97;5032701;28;20453;-71
2021/01/07 05:18:53;;;;;;;18.43;17.43;;;;;;;9.46;100.00;94171.38;5032625;28;20792;-72
2021/01/07 05:21:21;;;;;;;18.40;17.50;;;;;;;9.52;100.00;94170.69;5032702;28;20426;-73
2021/01/07 05:23:51;;;;;;;18.43;17.53;;;;;;;9.55;100.00;94169.53;5032848;28;20490;-84
2021/01/07 05:26:18;;;;;;;18.60;17.70;;;;;;;9.52;100.00;94177.63;5032515;28;20427;-70
2021/01/07 05:28:47;;;;;;;19.10;17.90;;;;;;;9.41;100.00;94171.88;5032833;28;20451;-71
2021/01/07 05:31:13;;;;;;;18.43;17.40;;;;;;;9.52;100.00;94186.09;5032753;28;20437;-70
2021/01/07 05:33:40;;;;;;;18.43;17.53;;;;;;;9.47;100.00;94196.13;5032215;28;20949;-71
2021/01/07 05:36:26;;;;;;;43.63;34.67;;;;;;;9.64;100.00;94201.13;5032327;28;20933;-76
2021/01/07 05:38:55;;;;;;;21.13;19.63;;;;;;;9.58;100.00;94195.72;5032136;28;20876;-72
2021/01/07 05:41:23;;;;;;;18.30;17.23;;;;;;;9.60;100.00;94191.22;5033087;28;20500;-72
2021/01/07 05:44:00;;;;;;;18.10;17.10;;;;;;;9.58;100.00;94195.72;5032502;28;20868;-71
2021/01/07 05:46:26;;;;;;;19.00;17.80;;;;;;;9.63;100.00;94184.94;5032305;28;20447;-72
2021/01/07 05:48:54;;;;;;;18.73;17.83;;;;;;;9.53;100.00;94190.28;5032535;28;20442;-72
2021/01/07 05:51:24;;;;;;;19.77;18.20;;;;;;;9.64;100.00;94199.38;5030911;28;20506;-72
2021/01/07 05:53:51;;;;;;;18.70;17.80;;;;;;;9.68;100.00;94197.25;5032587;28;20426;-72
2021/01/07 05:56:19;;;;;;;18.53;17.47;;;;;;;9.65;100.00;94182.97;5030626;28;20948;-72
2021/01/07 05:58:47;;;;;;;18.13;17.23;;;;;;;9.62;100.00;94203.88;5032428;28;20439;-72
2021/01/07 06:01:15;;;;;;;18.23;17.33;;;;;;;9.63;100.00;94190.06;5031728;28;20446;-72
2021/01/07 06:03:47;;;;;;;18.60;17.50;;;;;;;9.61;100.00;94197.16;5032061;28;20470;-72
2021/01/07 06:06:16;;;;;;;18.43;17.37;;;;;;;9.58;100.00;94203.44;5031892;28;20439;-72
2021/01/07 06:08:47;;;;;;;18.20;17.30;;;;;;;9.65;100.00;94200.97;5031857;28;20447;-72
2021/01/07 06:11:15;;;;;;;18.93;17.93;;;;;;;9.70;100.00;94205.63;5031672;28;20446;-71
2021/01/07 06:13:43;;;;;;;18.40;17.40;;;;;;;9.65;100.00;94211.25;5031970;28;20434;-71
2021/01/07 06:16:12;;;;;;;18.53;17.40;;;;;;;9.67;100.00;94196.47;5031539;28;20446;-73
2021/01/07 06:18:39;;;;;;;18.30;17.20;;;;;;;9.68;100.00;94208.34;5031764;28;20804;-72
2021/01/07 06:21:07;;;;;;;18.73;17.73;;;;;;;9.65;100.00;94210.47;5031461;28;20469;-72
2021/01/07 06:23:41;;;;;;;18.47;17.47;;;;;;;9.62;100.00;94214.97;5031889;28;20487;-72
2021/01/07 06:26:25;;;;;;;19.30;18.10;;;;;;;9.71;100.00;94218.28;5031371;28;20442;-72
2021/01/07 06:28:56;;;;;;;18.23;17.23;;;;;;;9.64;100.00;94211.41;5031419;28;20529;-72
2021/01/07 06:31:34;;;;;;;18.10;17.10;;;;;;;9.65;100.00;94221.56;5031336;28;20451;-72
2021/01/07 06:34:03;;;;;;;18.00;17.10;;;;;;;9.70;100.00;94216.66;5032672;28;20449;-71
2021/01/07 06:36:39;;;;;;;18.20;17.30;;;;;;;9.67;100.00;94213.66;5031646;28;20529;-71
2021/01/07 06:39:07;;;;;;;18.13;17.20;;;;;;;9.73;100.00;94218.91;5031352;28;20453;-72
2021/01/07 06:41:34;;;;;;;18.83;17.60;;;;;;;9.72;100.00;94224.25;5031972;28;20447;-72
2021/01/07 06:44:02;;;;;;;18.60;17.60;;;;;;;9.77;100.00;94221.16;5031499;28;20874;-72
2021/01/07 06:46:41;;;;;;;19.07;17.83;;;;;;;9.71;100.00;94231.16;5031736;28;20453;-72
2021/01/07 06:49:22;;;;;;;19.43;18.13;;;;;;;9.78;100.00;94233.03;5031926;28;20488;-72
2021/01/07 06:51:52;;;;;;;19.33;18.33;;;;;;;9.79;100.00;94250.84;5030031;28;20488;-72
2021/01/07 06:54:19;;;;;;;19.47;18.37;;;;;;;9.80;100.00;94252.47;5031526;28;20467;-72
2021/01/07 06:56:48;;;;;;;19.03;17.93;;;;;;;9.86;100.00;94240.69;5032015;28;20522;-72
2021/01/07 06:59:21;;;;;;;18.93;17.93;;;;;;;9.92;100.00;94224.56;5031781;28;20446;-72
2021/01/07 07:01:50;;;;;;;18.53;17.53;;;;;;;9.96;100.00;94220.69;5032172;28;21099;-72
2021/01/07 07:04:31;;;;;;;19.80;18.40;;;;;;;10.02;100.00;94236.38;5031914;28;20463;-72
2021/01/07 07:07:00;;;;;;;19.33;18.17;;;;;;;10.03;100.00;94240.56;5031811;28;20431;-72
2021/01/07 07:09:32;;;;;;;18.60;17.50;;;;;;;10.26;100.00;94265.47;5031465;28;20525;-72
2021/01/07 07:11:58;;;;;;;18.73;17.73;;;;;;;10.37;100.00;94264.25;5032493;28;20435;-72
2021/01/07 07:14:30;;;;;;;18.70;17.50;;;;;;;10.36;100.00;94260.88;5035143;28;20435;-72
2021/01/07 07:16:57;;;;;;;17.90;17.00;;;;;;;10.45;100.00;94279.63;5035291;28;20443;-72
2021/01/07 07:19:25;;;;;;;18.40;17.30;;;;;;;10.47;100.00;94285.41;5034802;28;20443;-71
2021/01/07 07:21:57;;;;;;;20.33;18.73;;;;;;;10.50;100.00;94279.94;5034715;28;20472;-72
2021/01/07 07:24:40;;;;;;;19.90;18.50;;;;;;;10.53;100.00;94274.41;5035156;28;20610;-72
2021/01/07 07:27:11;;;;;;;18.83;17.73;;;;;;;10.55;100.00;94279.41;5034853;28;20450;-71
2021/01/07 07:29:39;;;;;;;18.53;17.53;;;;;;;10.56;100.00;94291.31;5034455;28;20441;-71
2021/01/07 07:32:25;;;;;;;19.00;17.87;;;;;;;10.61;100.00;94301.09;5034640;28;20453;-71
2021/01/07 07:34:53;;;;;;;20.40;19.00;;;;;;;10.67;100.00;94297.81;5034837;28;20434;-71
2021/01/07 07:37:23;;;;;;;25.37;19.50;;;;;;;10.63;100.00;94304.28;5035363;28;20481;-71
2021/01/07 07:39:51;;;;;;;20.67;19.30;;;;;;;10.65;100.00;94310.06;5035140;28;20441;-72
2021/01/07 07:42:20;;;;;;;19.67;18.50;;;;;;;10.76;100.00;94325.09;5034519;28;20807;-72
2021/01/07 07:44:48;;;;;;;18.57;17.57;;;;;;;10.85;100.00;94340.44;5034149;28;20885;-72
2021/01/07 07:47:15;;;;;;;18.90;17.80;;;;;;;10.71;100.00;94372.94;5034111;28;20554;-72
2021/01/07 07:49:42;;;;;;;17.33;16.43;;;;;;;10.17;100.00;94388.25;5034350;28;20435;-72
2021/01/07 07:52:10;;;;;;;17.30;16.40;;;;;;;9.92;100.00;94372.97;5033249;28;20565;-72
2021/01/07 07:54:38;;;;;;;17.27;16.37;;;;;;;9.73;100.00;94382.69;5034652;28;20442;-72
2021/01/07 07:57:04;;;;;;;16.90;15.90;;;;;;;9.34;100.00;94394.56;5034803;28;20458;-72
2021/01/07 07:59:31;;;;;;;17.07;15.70;;;;;;;9.16;100.00;94404.06;5034130;28;20788;-72
2021/01/07 08:01:58;;;;;;;16.20;15.30;;;;;;;8.99;100.00;94410.19;5034322;28;20465;-72
2021/01/07 08:04:26;;;;;;;17.40;16.37;;;;;;;8.88;100.00;94412.13;5034350;28;20986;-72
2021/01/07 08:06:53;;;;;;;16.57;15.77;;;;;;;8.72;100.00;94412.13;5034635;28;20439;-72
2021/01/07 08:09:21;;;;;;;16.93;15.60;;;;;;;8.47;100.00;94412.88;5034263;28;20450;-72
2021/01/07 08:11:50;;;;;;;16.00;15.20;;;;;;;8.29;100.00;94425.88;5034406;28;20499;-72
2021/01/07 08:14:20;;;;;;;15.93;15.20;;;;;;;8.06;100.00;94442.66;5034142;28;20477;-73
2021/01/07 08:16:47;;;;;;;15.93;15.13;;;;;;;8.14;100.00;94459.81;5034406;28;20517;-73
2021/01/07 08:19:30;;;;;;;15.97;15.27;;;;;;;8.05;100.00;94465.88;5032727;28;20487;-72
2021/01/07 08:21:58;;;;;;;15.90;15.20;;;;;;;8.02;100.00;94469.53;5033475;28;20455;-72
2021/01/07 08:24:25;;;;;;;16.20;15.40;;;;;;;7.92;100.00;94482.50;5033337;28;20490;-72
2021/01/07 08:27:18;;;;;;;15.90;15.10;;;;;;;7.77;100.00;94479.72;5034030;28;20967;-73
2021/01/07 08:29:47;;;;;;;16.23;15.43;;;;;;;7.77;100.00;94472.03;5034141;28;20529;-73
2021/01/07 08:32:19;;;;;;;15.40;14.70;;;;;;;7.63;100.00;94504.16;5033737;28;20451;-73
2021/01/07 08:34:47;;;;;;;15.70;15.00;;;;;;;7.56;100.00;94512.44;5034182;28;20423;-72
2021/01/07 08:37:16;;;;;;;15.80;15.10;;;;;;;7.63;100.00;94496.44;5033606;28;20968;-72
2021/01/07 08:39:44;;;;;;;15.70;14.90;;;;;;;7.54;100.00;94508.41;5033547;28;20450;-72
2021/01/07 08:42:17;;;;;;;16.47;15.57;;;;;;;7.57;100.00;94492.75;5033328;28;20547;-72
2021/01/07 08:44:44;;;;;;;16.10;15.33;;;;;;;7.38;100.00;94511.66;5033617;28;20481;-73
2021/01/07 08:47:22;;;;;;;16.03;15.30;;;;;;;7.50;100.00;94504.56;5026324;28;20439;-72
2021/01/07 08:50:02;;;;;;;15.57;14.87;;;;;;;7.42;100.00;94513.78;5013479;28;20502;-72
2021/01/07 08:52:28;;;;;;;15.70;15.00;;;;;;;7.48;100.00;94522.66;5029371;28;21053;-72
2021/01/07 08:54:55;;;;;;;15.90;15.20;;;;;;;7.43;100.00;94520.53;5032935;28;20787;-72
2021/01/07 08:57:22;;;;;;;15.97;15.17;;;;;;;7.39;100.00;94529.44;5032580;28;20529;-72
2021/01/07 08:59:49;;;;;;;16.30;15.30;;;;;;;7.37;100.00;94536.47;5032312;28;21004;-72
2021/01/07 09:02:19;;;;;;;15.70;14.90;;;;;;;7.43;100.00;94540.22;5033138;28;20828;-73
2021/01/07 09:04:49;;;;;;;17.27;16.07;;;;;;;7.47;100.00;94541.53;5032826;28;20459;-71
2021/01/07 09:07:20;;;;;;;16.40;15.40;;;;;;;7.51;100.00;94536.91;5032865;28;20545;-72
2021/01/07 09:09:47;;;;;;;16.73;15.67;;;;;;;7.50;100.00;94543.81;5032736;28;20458;-73
2021/01/07 09:12:16;;;;;;;17.50;16.40;;;;;;;7.62;100.00;94546.91;5033010;28;20455;-73
2021/01/07 09:14:55;;;;;;;17.77;16.67;;;;;;;7.62;100.00;94549.47;5032390;28;20475;-72
2021/01/07 09:17:25;;;;;;;16.50;15.60;;;;;;;7.74;100.00;94544.91;5032116;28;20929;-72
2021/01/07 09:19:52;;;;;;;16.70;15.90;;;;;;;7.77;100.00;94538.69;5032883;28;20541;-72
2021/01/07 09:22:21;;;;;;;15.90;15.10;;;;;;;7.86;100.00;94544.66;5032905;28;20439;-73
2021/01/07 09:24:48;;;;;;;16.87;15.90;;;;;;;7.83;100.00;94544.94;5032814;28;20489;-72
2021/01/07 09:27:17;;;;;;;16.70;15.90;;;;;;;7.87;100.00;94523.16;5032924;28;20446;-71
2021/01/07 09:29:45;;;;;;;17.00;16.17;;;;;;;7.94;100.00;94528.50;5033130;28;20453;-72
2021/01/07 09:32:13;;;;;;;16.70;15.83;;;;;;;7.97;100.00;94513.63;5032312;28;20439;-72
2021/01/07 09:34:41;;;;;;;16.40;15.60;;;;;;;8.01;100.00;94521.81;5031778;28;20537;-72
2021/01/07 09:37:10;;;;;;;18.10;16.90;;;;;;;7.88;100.00;94502.53;5032260;28;20529;-72
2021/01/07 09:39:37;;;;;;;17.53;16.63;;;;;;;8.01;100.00;94521.81;5032408;28;20520;-72
2021/01/07 09:42:06;;;;;;;16.07;15.27;;;;;;;8.15;100.00;94515.31;5032331;28;20525;-72
2021/01/07 09:44:33;;;;;;;16.67;15.80;;;;;;;8.12;100.00;94516.41;5032014;28;20478;-72
2021/01/07 09:47:01;;;;;;;17.07;16.17;;;;;;;8.00;100.00;94526.13;5032826;28;20534;-72
2021/01/07 09:49:29;;;;;;;16.93;16.13;;;;;;;8.02;100.00;94538.78;5032084;28;20961;-72
2021/01/07 09:51:56;;;;;;;16.90;16.00;;;;;;;7.98;100.00;94530.59;5030693;28;21002;-72
2021/01/07 09:54:23;;;;;;;17.40;16.40;;;;;;;8.05;100.00;94517.97;5032193;28;20851;-72
2021/01/07 09:56:51;;;;;;;16.30;15.50;;;;;;;8.09;100.00;94514.13;5032486;28;21041;-72
2021/01/07 09:59:22;;;;;;;17.43;16.40;;;;;;;7.96;100.00;94506.06;5032996;28;20450;-72
2021/01/07 10:01:53;;;;;;;16.83;15.83;;;;;;;8.00;100.00;94509.94;5031949;28;20430;-72
2021/01/07 10:04:20;;;;;;;17.00;16.00;;;;;;;7.95;100.00;94499.34;5032068;28;20490;-72
2021/01/07 10:06:48;;;;;;;18.37;16.87;;;;;;;8.03;100.00;94522.44;5032877;28;20972;-72
2021/01/07 10:09:15;;;;;;;17.90;16.90;;;;;;;8.01;100.00;94514.09;5032080;28;20415;-72
2021/01/07 10:11:42;;;;;;;17.00;16.20;;;;;;;8.12;100.00;94515.59;5031566;28;20434;-72
2021/01/07 10:14:09;;;;;;;16.70;15.90;;;;;;;8.16;100.00;94526.34;5032535;28;20430;-73
2021/01/07 10:16:36;;;;;;;16.27;15.40;;;;;;;8.12;100.00;94518.16;5032059;28;20450;-73
2021/01/07 10:19:02;;;;;;;16.70;15.80;;;;;;;8.09;100.00;94510.75;5031560;28;20921;-73
2021/01/07 10:21:31;;;;;;;17.27;16.40;;;;;;;8.10;100.00;94507.25;5031514;28;20810;-73
2021/01/07 10:24:00;;;;;;;16.30;15.50;;;;;;;8.12;100.00;94511.28;5031802;28;20477;-73
2021/01/07 10:26:26;;;;;;;16.00;15.20;;;;;;;8.12;100.00;94516.41;5031179;28;20632;-72
2021/01/07 10:28:53;;;;;;;17.73;16.63;;;;;;;8.15;100.00;94522.19;5031335;28;20439;-72
2021/01/07 10:31:21;;;;;;;18.53;17.30;;;;;;;8.17;100.00;94522.84;5031997;28;20450;-72
2021/01/07 10:33:54;;;;;;;19.43;18.17;;;;;;;8.16;100.00;94528.91;5034385;28;20442;-73
2021/01/07 10:36:20;;;;;;;18.40;17.20;;;;;;;8.14;100.00;94518.81;5033847;28;20952;-73
2021/01/07 10:38:49;;;;;;;17.07;16.17;;;;;;;8.22;100.00;94525.75;5031374;28;20451;-73
2021/01/07 10:41:16;;;;;;;16.40;15.60;;;;;;;8.23;100.00;94522.22;5031723;28;20536;-73
2021/01/07 10:43:45;;;;;;;17.53;16.53;;;;;;;8.20;100.00;94520.75;5031884;28;20454;-73
2021/01/07 10:46:11;;;;;;;16.90;15.80;;;;;;;8.19;100.00;94528.59;5033953;28;20936;-73
2021/01/07 10:48:44;;;;;;;16.50;15.70;;;;;;;8.14;100.00;94534.19;5035258;28;20445;-73
2021/01/07 10:51:11;;;;;;;17.23;16.33;;;;;;;8.15;100.00;94527.31;5035563;28;20442;-73
2021/01/07 10:54:02;;;;;;;17.00;16.00;;;;;;;8.17;100.00;94530.53;5034141;28;21058;-73
2021/01/07 10:56:41;;;;;;;16.70;15.83;;;;;;;8.16;100.00;94527.16;5035782;28;20439;-73
2021/01/07 10:59:21;;;;;;;16.57;15.77;;;;;;;8.11;100.00;94525.03;5035907;28;20502;-73
2021/01/07 11:01:58;;;;;;;16.30;15.50;;;;;;;8.21;100.00;94516.44;5035591;28;20453;-73
2021/01/07 11:05:04;;;;;;;16.63;15.83;;;;;;;8.17;100.00;94521.06;5035268;28;20536;-73
2021/01/07 11:07:38;;;;;;;18.10;17.00;;;;;;;8.19;100.00;94519.16;5034982;28;20480;-73
2021/01/07 11:10:07;;;;;;;16.53;15.63;;;;;;;8.21;100.00;94522.38;5035877;28;20504;-74
2021/01/07 11:12:41;;;;;;;16.40;15.50;;;;;;;8.20;100.00;94514.84;5035326;28;20966;-74
2021/01/07 11:15:12;;;;;;;16.77;15.77;;;;;;;8.22;100.00;94505.22;5035652;28;20508;-73
2021/01/07 11:17:47;;;;;;;16.70;15.80;;;;;;;8.19;100.00;94508.91;5035991;28;20908;-74
2021/01/07 11:20:15;;;;;;;16.20;15.40;;;;;;;8.17;100.00;94492.03;5035467;28;20411;-73
2021/01/07 11:22:44;;;;;;;16.90;15.97;;;;;;;8.13;100.00;94504.38;5034826;28;20469;-74